Time,TemperatureF,DewpointF,PressureIn,WindDirection,WindDirectionDegrees,WindSpeedMPH,WindSpeedGustMPH,Humidity,HourlyPrecipIn,Conditions,Clouds,dailyrainin,SoftwareType,DateUTC
2013-07-05 00:01:00,76.6,72.4,30.19,West,269,0.0,0.0,87,0.00,,,0.00,Wunderground v.1.15,2013-07-05 04:01:00,
2013-07-05 00:03:00,76.6,72.8,30.19,West,269,0.0,1.0,88,0.00,,,0.00,Wunderground v.1.15,2013-07-05 04:03:00,
2013-07-05 00:05:00,76.6,72.8,30.19,West,269,0.0,1.0,88,0.00,,,0.00,Wunderground v.1.15,2013-07-05 04:05:00,
2013-07-05 00:07:00,76.6,72.8,30.19,West,269,0.0,1.0,88,0.00,,,0.00,Wunderground v.1.15,2013-07-05 04:07:00,
2013-07-05 00:12:00,76.6,72.8,30.19,West,269,0.0,0.0,88,0.00,,,0.00,Wunderground v.1.15,2013-07-05 04:12:00,
2013-07-05 00:17:00,76.3,72.5,30.19,West,269,0.0,0.0,88,0.00,,,0.00,Wunderground v.1.15,2013-07-05 04:17:00,
2013-07-05 00:22:00,76.3,72.5,30.19,West,269,0.0,0.0,88,0.00,,,0.00,Wunderground v.1.15,2013-07-05 04:22:00,
2013-07-05 00:27:00,76.1,72.6,30.19,West,269,0.0,0.0,89,0.00,,,0.00,Wunderground v.1.15,2013-07-05 04:27:00,
2013-07-05 00:33:00,75.9,72.4,30.19,West,269,0.0,0.0,89,0.00,,,0.00,Wunderground v.1.15,2013-07-05 04:33:00,
2013-07-05 00:38:00,75.8,72.7,30.19,West,269,0.0,0.0,90,0.00,,,0.00,Wunderground v.1.15,2013-07-05 04:38:00,
2013-07-05 00:44:00,75.7,72.6,30.19,West,269,0.0,0.0,90,0.00,,,0.00,Wunderground v.1.15,2013-07-05 04:44:00,
2013-07-05 00:49:00,75.6,72.5,30.19,West,269,0.0,0.0,90,0.00,,,0.00,Wunderground v.1.15,2013-07-05 04:49:00,
2013-07-05 00:54:00,75.7,72.6,30.19,West,269,0.0,0.0,90,0.00,,,0.00,Wunderground v.1.15,2013-07-05 04:54:00,
2013-07-05 01:02:00,75.3,72.2,30.19,West,269,0.0,0.0,90,0.00,,,0.00,Wunderground v.1.15,2013-07-05 05:02:00,
2013-07-05 01:07:00,75.2,72.4,30.19,West,269,0.0,0.0,91,0.00,,,0.00,Wunderground v.1.15,2013-07-05 05:07:00,
2013-07-05 01:12:00,75.2,72.4,30.19,West,269,1.0,1.0,91,0.00,,,0.00,Wunderground v.1.15,2013-07-05 05:12:00,
2013-07-05 01:18:00,75.2,72.4,30.19,West,269,0.0,1.0,91,0.00,,,0.00,Wunderground v.1.15,2013-07-05 05:18:00,
2013-07-05 01:24:00,75.1,72.3,30.19,West,269,1.0,1.0,91,0.00,,,0.00,Wunderground v.1.15,2013-07-05 05:24:00,
2013-07-05 01:31:00,75.0,72.5,30.19,SW,225,0.0,2.0,92,0.00,,,0.00,Wunderground v.1.15,2013-07-05 05:31:00,
2013-07-05 01:36:00,75.2,72.4,30.19,SW,225,1.0,1.0,91,0.00,,,0.00,Wunderground v.1.15,2013-07-05 05:36:00,
2013-07-05 01:41:00,75.2,72.4,30.19,SSW,198,0.0,1.0,91,0.00,,,0.00,Wunderground v.1.15,2013-07-05 05:41:00,
2013-07-05 01:47:00,75.2,72.4,30.19,SSW,198,0.0,1.0,91,0.00,,,0.00,Wunderground v.1.15,2013-07-05 05:47:00,
2013-07-05 01:53:00,75.2,72.4,30.19,SSW,203,0.0,2.0,91,0.00,,,0.00,Wunderground v.1.15,2013-07-05 05:53:00,
2013-07-05 01:59:00,75.2,72.4,30.19,SSW,203,0.0,0.0,91,0.00,,,0.00,Wunderground v.1.15,2013-07-05 05:59:00,
2013-07-05 02:04:00,75.3,72.2,30.19,SSW,203,0.0,1.0,90,0.00,,,0.00,Wunderground v.1.15,2013-07-05 06:04:00,
2013-07-05 02:09:00,75.1,72.0,30.19,SW,223,1.0,2.0,90,0.00,,,0.00,Wunderground v.1.15,2013-07-05 06:09:00,
2013-07-05 02:14:00,75.1,72.3,30.19,SW,223,0.0,2.0,91,0.00,,,0.00,Wunderground v.1.15,2013-07-05 06:14:00,
2013-07-05 02:19:00,74.9,72.1,30.19,SW,221,1.0,1.0,91,0.00,,,0.00,Wunderground v.1.15,2013-07-05 06:19:00,
2013-07-05 02:24:00,74.9,72.1,30.19,SW,221,0.0,1.0,91,0.00,,,0.00,Wunderground v.1.15,2013-07-05 06:24:00,
2013-07-05 02:29:00,74.9,72.1,30.19,SW,221,0.0,1.0,91,0.00,,,0.00,Wunderground v.1.15,2013-07-05 06:29:00,
2013-07-05 02:34:00,74.7,71.9,30.19,SW,221,0.0,1.0,91,0.00,,,0.00,Wunderground v.1.15,2013-07-05 06:34:00,
2013-07-05 02:39:00,74.7,71.9,30.19,SW,221,0.0,0.0,91,0.00,,,0.00,Wunderground v.1.15,2013-07-05 06:39:00,
2013-07-05 02:44:00,74.6,71.8,30.19,SSW,192,2.0,5.0,91,0.00,,,0.00,Wunderground v.1.15,2013-07-05 06:44:00,
2013-07-05 02:49:00,74.7,71.9,30.19,SSW,193,0.0,1.0,91,0.00,,,0.00,Wunderground v.1.15,2013-07-05 06:49:00,
2013-07-05 02:54:00,74.6,71.8,30.19,SSW,193,0.0,2.0,91,0.00,,,0.00,Wunderground v.1.15,2013-07-05 06:54:00,
2013-07-05 02:59:00,74.5,71.7,30.19,SSW,193,0.0,0.0,91,0.00,,,0.00,Wunderground v.1.15,2013-07-05 06:59:00,
2013-07-05 03:04:00,74.4,71.9,30.19,SSW,193,0.0,2.0,92,0.00,,,0.00,Wunderground v.1.15,2013-07-05 07:04:00,
2013-07-05 03:09:00,74.4,71.9,30.19,SSW,193,0.0,1.0,92,0.00,,,0.00,Wunderground v.1.15,2013-07-05 07:09:00,
2013-07-05 03:14:00,74.4,71.9,30.19,SSW,194,1.0,3.0,92,0.00,,,0.00,Wunderground v.1.15,2013-07-05 07:14:00,
2013-07-05 03:20:00,74.3,71.8,30.19,SSW,194,0.0,0.0,92,0.00,,,0.00,Wunderground v.1.15,2013-07-05 07:20:00,
2013-07-05 03:25:00,74.1,71.6,30.19,SSW,194,0.0,1.0,92,0.00,,,0.00,Wunderground v.1.15,2013-07-05 07:25:00,
2013-07-05 03:30:00,74.0,71.5,30.19,SSW,194,0.0,1.0,92,0.00,,,0.00,Wunderground v.1.15,2013-07-05 07:30:00,
2013-07-05 03:35:00,74.0,71.5,30.18,SSW,194,0.0,1.0,92,0.00,,,0.00,Wunderground v.1.15,2013-07-05 07:35:00,
2013-07-05 03:40:00,73.9,71.4,30.18,SSW,194,0.0,0.0,92,0.00,,,0.00,Wunderground v.1.15,2013-07-05 07:40:00,
2013-07-05 03:45:00,73.8,71.3,30.18,SSW,195,2.0,3.0,92,0.00,,,0.00,Wunderground v.1.15,2013-07-05 07:45:00,
2013-07-05 03:50:00,73.8,71.3,30.18,South,177,0.0,1.0,92,0.00,,,0.00,Wunderground v.1.15,2013-07-05 07:50:00,
2013-07-05 03:55:00,73.9,71.4,30.18,South,183,0.0,1.0,92,0.00,,,0.00,Wunderground v.1.15,2013-07-05 07:55:00,
2013-07-05 04:00:00,73.9,71.4,30.18,SW,219,0.0,0.0,92,0.00,,,0.00,Wunderground v.1.15,2013-07-05 08:00:00,
2013-07-05 04:05:00,73.7,71.2,30.18,SW,219,0.0,1.0,92,0.00,,,0.00,Wunderground v.1.15,2013-07-05 08:05:00,
2013-07-05 04:10:00,73.7,71.5,30.18,SW,219,0.0,0.0,93,0.00,,,0.00,Wunderground v.1.15,2013-07-05 08:10:00,
2013-07-05 04:15:00,73.5,71.4,30.18,SW,219,1.0,1.0,93,0.00,,,0.00,Wunderground v.1.15,2013-07-05 08:15:00,
2013-07-05 04:20:00,73.5,71.4,30.18,SW,219,0.0,0.0,93,0.00,,,0.00,Wunderground v.1.15,2013-07-05 08:20:00,
2013-07-05 04:25:00,73.4,71.3,30.18,SW,219,0.0,1.0,93,0.00,,,0.00,Wunderground v.1.15,2013-07-05 08:25:00,
2013-07-05 04:30:00,73.4,71.3,30.18,SW,219,1.0,3.0,93,0.00,,,0.00,Wunderground v.1.15,2013-07-05 08:30:00,
2013-07-05 04:35:00,73.3,71.2,30.18,SSW,202,1.0,3.0,93,0.00,,,0.00,Wunderground v.1.15,2013-07-05 08:35:00,
2013-07-05 04:40:00,73.2,71.1,30.18,SSW,202,0.0,0.0,93,0.00,,,0.00,Wunderground v.1.15,2013-07-05 08:40:00,
2013-07-05 04:45:00,73.1,71.0,30.18,SSW,202,0.0,1.0,93,0.00,,,0.00,Wunderground v.1.15,2013-07-05 08:45:00,
2013-07-05 04:50:00,73.0,71.2,30.18,SSW,202,0.0,0.0,94,0.00,,,0.00,Wunderground v.1.15,2013-07-05 08:50:00,
2013-07-05 04:55:00,73.0,71.2,30.18,SSW,202,1.0,1.0,94,0.00,,,0.00,Wunderground v.1.15,2013-07-05 08:55:00,
2013-07-05 05:00:00,72.9,71.1,30.18,SSW,202,0.0,0.0,94,0.00,,,0.00,Wunderground v.1.15,2013-07-05 09:00:00,
2013-07-05 05:05:00,72.8,71.0,30.17,SSW,202,0.0,0.0,94,0.00,,,0.00,Wunderground v.1.15,2013-07-05 09:05:00,
2013-07-05 05:11:00,72.6,70.8,30.18,SSW,202,0.0,0.0,94,0.00,,,0.00,Wunderground v.1.15,2013-07-05 09:11:00,
2013-07-05 05:17:00,72.6,70.8,30.18,SSW,202,0.0,1.0,94,0.00,,,0.00,Wunderground v.1.15,2013-07-05 09:17:00,
2013-07-05 05:22:00,72.6,70.8,30.18,SSW,202,1.0,2.0,94,0.00,,,0.00,Wunderground v.1.15,2013-07-05 09:22:00,
2013-07-05 05:28:00,72.5,70.7,30.18,SSW,204,1.0,2.0,94,0.00,,,0.00,Wunderground v.1.15,2013-07-05 09:28:00,
2013-07-05 05:33:00,72.5,71.0,30.19,SSW,204,0.0,0.0,95,0.00,,,0.00,Wunderground v.1.15,2013-07-05 09:33:00,
2013-07-05 05:38:00,72.5,71.0,30.18,SSW,204,0.0,1.0,95,0.00,,,0.00,Wunderground v.1.15,2013-07-05 09:38:00,
2013-07-05 05:43:00,72.4,70.9,30.18,SSW,204,0.0,1.0,95,0.00,,,0.00,Wunderground v.1.15,2013-07-05 09:43:00,
2013-07-05 05:48:00,72.4,70.9,30.18,SSW,204,0.0,1.0,95,0.00,,,0.00,Wunderground v.1.15,2013-07-05 09:48:00,
2013-07-05 05:54:00,72.4,70.9,30.19,SSW,204,0.0,1.0,95,0.00,,,0.00,Wunderground v.1.15,2013-07-05 09:54:00,
2013-07-05 05:59:00,72.4,70.9,30.19,SSW,204,1.0,2.0,95,0.00,,,0.00,Wunderground v.1.15,2013-07-05 09:59:00,
2013-07-05 06:04:00,72.4,70.9,30.19,SSW,204,0.0,1.0,95,0.00,,,0.00,Wunderground v.1.15,2013-07-05 10:04:00,
2013-07-05 06:09:00,72.5,71.0,30.19,SW,218,1.0,2.0,95,0.00,,,0.00,Wunderground v.1.15,2013-07-05 10:09:00,
2013-07-05 06:14:00,72.5,71.0,30.19,SSW,198,0.0,5.0,95,0.00,,,0.00,Wunderground v.1.15,2013-07-05 10:14:00,
2013-07-05 06:19:00,72.4,70.9,30.19,SSW,198,0.0,1.0,95,0.00,,,0.00,Wunderground v.1.15,2013-07-05 10:19:00,
2013-07-05 06:25:00,72.4,70.9,30.19,SSW,213,1.0,2.0,95,0.00,,,0.00,Wunderground v.1.15,2013-07-05 10:25:00,
2013-07-05 06:30:00,72.5,71.0,30.19,SSW,204,0.0,1.0,95,0.00,,,0.00,Wunderground v.1.15,2013-07-05 10:30:00,
2013-07-05 06:36:00,72.6,71.1,30.19,WSW,239,0.0,2.0,95,0.00,,,0.00,Wunderground v.1.15,2013-07-05 10:36:00,
2013-07-05 06:41:00,72.7,71.2,30.19,SW,224,0.0,1.0,95,0.00,,,0.00,Wunderground v.1.15,2013-07-05 10:41:00,
2013-07-05 06:46:00,72.9,71.4,30.19,South,180,0.0,3.0,95,0.00,,,0.00,Wunderground v.1.15,2013-07-05 10:46:00,
2013-07-05 06:51:00,73.0,71.5,30.19,SSW,202,0.0,4.0,95,0.00,,,0.00,Wunderground v.1.15,2013-07-05 10:51:00,
2013-07-05 06:56:00,73.1,71.6,30.19,SSW,202,0.0,4.0,95,0.00,,,0.00,Wunderground v.1.15,2013-07-05 10:56:00,
2013-07-05 07:01:00,73.7,72.2,30.19,SSW,202,0.0,3.0,95,0.00,,,0.00,Wunderground v.1.15,2013-07-05 11:01:00,
2013-07-05 07:07:00,73.9,72.1,30.19,WSW,258,0.0,3.0,94,0.00,,,0.00,Wunderground v.1.15,2013-07-05 11:07:00,
2013-07-05 07:12:00,74.1,71.9,30.19,South,184,1.0,4.0,93,0.00,,,0.00,Wunderground v.1.15,2013-07-05 11:12:00,
2013-07-05 07:17:00,74.3,72.1,30.19,ESE,102,1.0,4.0,93,0.00,,,0.00,Wunderground v.1.15,2013-07-05 11:17:00,
2013-07-05 07:22:00,74.7,72.2,30.20,SSW,211,2.0,5.0,92,0.00,,,0.00,Wunderground v.1.15,2013-07-05 11:22:00,
2013-07-05 07:27:00,75.2,73.0,30.19,SSW,198,1.0,5.0,93,0.00,,,0.00,Wunderground v.1.15,2013-07-05 11:27:00,
2013-07-05 07:33:00,75.4,72.6,30.20,SW,218,3.0,3.0,91,0.00,,,0.00,Wunderground v.1.15,2013-07-05 11:33:00,
2013-07-05 07:38:00,75.8,72.7,30.20,SSE,163,2.0,6.0,90,0.00,,,0.00,Wunderground v.1.15,2013-07-05 11:38:00,
2013-07-05 07:43:00,76.2,73.1,30.20,SSW,203,0.0,4.0,90,0.00,,,0.00,Wunderground v.1.15,2013-07-05 11:43:00,
2013-07-05 07:48:00,76.4,72.9,30.20,WSW,249,4.0,5.0,89,0.00,,,0.00,Wunderground v.1.15,2013-07-05 11:48:00,
2013-07-05 07:53:00,76.5,72.7,30.20,South,187,2.0,3.0,88,0.00,,,0.00,Wunderground v.1.15,2013-07-05 11:53:00,
2013-07-05 07:58:00,76.9,73.4,30.20,SSW,193,0.0,5.0,89,0.00,,,0.00,Wunderground v.1.15,2013-07-05 11:58:00,
2013-07-05 08:03:00,76.9,73.4,30.20,WSW,240,0.0,2.0,89,0.00,,,0.00,Wunderground v.1.15,2013-07-05 12:03:00,
2013-07-05 08:08:00,77.1,73.6,30.20,SSW,198,3.0,7.0,89,0.00,,,0.00,Wunderground v.1.15,2013-07-05 12:08:00,
2013-07-05 08:14:00,77.5,73.7,30.20,SSW,204,3.0,4.0,88,0.00,,,0.00,Wunderground v.1.15,2013-07-05 12:14:00,
2013-07-05 08:19:00,77.9,74.1,30.20,NNE,23,4.0,4.0,88,0.00,,,0.00,Wunderground v.1.15,2013-07-05 12:19:00,
2013-07-05 08:24:00,78.0,73.5,30.20,SSW,192,2.0,5.0,86,0.00,,,0.00,Wunderground v.1.15,2013-07-05 12:24:00,
2013-07-05 08:29:00,78.6,74.1,30.20,SSE,164,2.0,5.0,86,0.00,,,0.00,Wunderground v.1.15,2013-07-05 12:29:00,
2013-07-05 08:34:00,78.2,73.7,30.20,SSW,200,1.0,6.0,86,0.00,,,0.00,Wunderground v.1.15,2013-07-05 12:34:00,
2013-07-05 08:39:00,78.8,74.3,30.20,SW,217,2.0,6.0,86,0.00,,,0.00,Wunderground v.1.15,2013-07-05 12:39:00,
2013-07-05 08:44:00,79.0,74.1,30.21,WSW,238,2.0,3.0,85,0.00,,,0.00,Wunderground v.1.15,2013-07-05 12:44:00,
2013-07-05 08:50:00,79.3,74.0,30.20,SSW,208,2.0,2.0,84,0.00,,,0.00,Wunderground v.1.15,2013-07-05 12:50:00,
2013-07-05 08:55:00,79.2,73.9,30.20,SSW,213,3.0,7.0,84,0.00,,,0.00,Wunderground v.1.15,2013-07-05 12:55:00,
2013-07-05 09:00:00,79.0,73.7,30.20,WSW,242,1.0,2.0,84,0.00,,,0.00,Wunderground v.1.15,2013-07-05 13:00:00,
2013-07-05 09:05:00,79.3,74.4,30.20,SSW,209,5.0,5.0,85,0.00,,,0.00,Wunderground v.1.15,2013-07-05 13:05:00,
2013-07-05 09:10:00,79.8,74.2,30.20,WSW,246,2.0,2.0,83,0.00,,,0.00,Wunderground v.1.15,2013-07-05 13:10:00,
2013-07-05 09:16:00,79.5,73.9,30.20,South,183,4.0,4.0,83,0.00,,,0.00,Wunderground v.1.15,2013-07-05 13:16:00,
2013-07-05 09:21:00,79.2,73.9,30.20,SW,235,1.0,4.0,84,0.00,,,0.00,Wunderground v.1.15,2013-07-05 13:21:00,
2013-07-05 09:27:00,79.5,74.2,30.20,SSW,196,1.0,4.0,84,0.00,,,0.00,Wunderground v.1.15,2013-07-05 13:27:00,
2013-07-05 09:32:00,80.1,74.5,30.20,West,267,2.0,5.0,83,0.00,,,0.00,Wunderground v.1.15,2013-07-05 13:32:00,
2013-07-05 09:37:00,79.8,74.5,30.20,SW,214,3.0,7.0,84,0.00,,,0.00,Wunderground v.1.15,2013-07-05 13:37:00,
2013-07-05 09:42:00,80.8,74.4,30.20,South,184,0.0,10.0,81,0.00,,,0.00,Wunderground v.1.15,2013-07-05 13:42:00,
2013-07-05 09:47:00,80.2,73.8,30.20,South,186,3.0,10.0,81,0.00,,,0.00,Wunderground v.1.15,2013-07-05 13:47:00,
2013-07-05 09:52:00,80.9,74.5,30.21,South,173,4.0,6.0,81,0.00,,,0.00,Wunderground v.1.15,2013-07-05 13:52:00,
2013-07-05 09:57:00,81.2,75.2,30.21,WSW,243,3.0,7.0,82,0.00,,,0.00,Wunderground v.1.15,2013-07-05 13:57:00,
2013-07-05 10:02:00,82.4,76.0,30.20,ESE,103,0.0,4.0,81,0.00,,,0.00,Wunderground v.1.15,2013-07-05 14:02:00,
2013-07-05 10:07:00,82.7,74.8,30.21,West,261,1.0,7.0,77,0.00,,,0.00,Wunderground v.1.15,2013-07-05 14:07:00,
2013-07-05 10:12:00,82.7,75.5,30.20,WNW,284,2.0,4.0,79,0.00,,,0.00,Wunderground v.1.15,2013-07-05 14:12:00,
2013-07-05 10:18:00,81.8,74.3,30.20,WSW,238,4.0,8.0,78,0.00,,,0.00,Wunderground v.1.15,2013-07-05 14:18:00,
2013-07-05 10:23:00,82.6,75.0,30.20,SSW,194,2.0,4.0,78,0.00,,,0.00,Wunderground v.1.15,2013-07-05 14:23:00,
2013-07-05 10:28:00,82.4,74.8,30.20,SSW,209,1.0,5.0,78,0.00,,,0.00,Wunderground v.1.15,2013-07-05 14:28:00,
2013-07-05 10:33:00,83.0,74.6,30.20,South,172,0.0,5.0,76,0.00,,,0.00,Wunderground v.1.15,2013-07-05 14:33:00,
2013-07-05 10:38:00,83.0,75.0,30.20,SSW,202,3.0,5.0,77,0.00,,,0.00,Wunderground v.1.15,2013-07-05 14:38:00,
2013-07-05 10:44:00,82.8,74.8,30.20,SW,225,2.0,7.0,77,0.00,,,0.00,Wunderground v.1.15,2013-07-05 14:44:00,
2013-07-05 10:49:00,82.9,74.6,30.20,South,177,5.0,7.0,76,0.00,,,0.00,Wunderground v.1.15,2013-07-05 14:49:00,
2013-07-05 10:54:00,83.2,74.8,30.20,SW,217,1.0,4.0,76,0.00,,,0.00,Wunderground v.1.15,2013-07-05 14:54:00,
2013-07-05 10:59:00,84.2,77.0,30.19,SW,214,3.0,4.0,79,0.00,,,0.00,Wunderground v.1.15,2013-07-05 14:59:00,
2013-07-05 11:04:00,83.9,75.9,30.20,South,173,2.0,3.0,77,0.00,,,0.00,Wunderground v.1.15,2013-07-05 15:04:00,
2013-07-05 11:10:00,84.0,75.6,30.19,NE,38,4.0,4.0,76,0.00,,,0.00,Wunderground v.1.15,2013-07-05 15:10:00,
2013-07-05 11:16:00,84.6,77.0,30.19,South,170,3.0,5.0,78,0.00,,,0.00,Wunderground v.1.15,2013-07-05 15:16:00,
2013-07-05 11:21:00,85.0,77.0,30.19,SSW,213,1.0,4.0,77,0.00,,,0.00,Wunderground v.1.15,2013-07-05 15:21:00,
2013-07-05 11:26:00,85.4,74.9,30.19,SSE,151,2.0,5.0,71,0.00,,,0.00,Wunderground v.1.15,2013-07-05 15:26:00,
2013-07-05 11:31:00,85.5,76.3,30.19,SSE,167,3.0,10.0,74,0.00,,,0.00,Wunderground v.1.15,2013-07-05 15:31:00,
2013-07-05 11:36:00,85.0,75.4,30.19,WSW,258,1.0,10.0,73,0.00,,,0.00,Wunderground v.1.15,2013-07-05 15:36:00,
2013-07-05 11:41:00,86.1,78.4,30.19,SW,216,3.0,3.0,78,0.00,,,0.00,Wunderground v.1.15,2013-07-05 15:41:00,
2013-07-05 11:46:00,85.5,75.0,30.19,SW,232,2.0,8.0,71,0.00,,,0.00,Wunderground v.1.15,2013-07-05 15:46:00,
2013-07-05 11:50:00,85.5,75.9,30.19,NW,311,2.0,3.0,73,0.00,,,0.00,Wunderground v.1.15,2013-07-05 15:50:00,
2013-07-05 11:55:00,84.6,74.2,30.20,SSW,194,1.0,5.0,71,0.00,,,0.00,Wunderground v.1.15,2013-07-05 15:55:00,
2013-07-05 12:00:00,85.4,75.3,30.19,SSW,213,4.0,4.0,72,0.00,,,0.00,Wunderground v.1.15,2013-07-05 16:00:00,
2013-07-05 12:05:00,85.0,75.8,30.19,South,172,0.0,5.0,74,0.00,,,0.00,Wunderground v.1.15,2013-07-05 16:05:00,
2013-07-05 12:10:00,86.6,78.9,30.19,SSW,198,2.0,2.0,78,0.00,,,0.00,Wunderground v.1.15,2013-07-05 16:10:00,
2013-07-05 12:15:00,87.0,76.0,30.19,South,176,1.0,6.0,70,0.00,,,0.00,Wunderground v.1.15,2013-07-05 16:15:00,
2013-07-05 12:20:00,86.0,76.3,30.19,WSW,246,3.0,3.0,73,0.00,,,0.00,Wunderground v.1.15,2013-07-05 16:20:00,
2013-07-05 12:25:00,85.9,76.2,30.19,SW,222,2.0,12.0,73,0.00,,,0.00,Wunderground v.1.15,2013-07-05 16:25:00,
2013-07-05 12:30:00,85.4,75.8,30.19,SW,221,2.0,4.0,73,0.00,,,0.00,Wunderground v.1.15,2013-07-05 16:30:00,
2013-07-05 12:35:00,84.9,74.0,30.19,SSW,203,3.0,6.0,70,0.00,,,0.00,Wunderground v.1.15,2013-07-05 16:35:00,
2013-07-05 12:40:00,85.6,75.5,30.19,SSW,200,4.0,9.0,72,0.00,,,0.00,Wunderground v.1.15,2013-07-05 16:40:00,
2013-07-05 12:41:00,85.6,74.7,30.19,South,183,4.0,9.0,70,0.00,,,0.00,Wunderground v.1.15,2013-07-05 16:41:00,
2013-07-05 12:46:00,85.6,75.9,30.19,SSW,207,7.0,9.0,73,0.00,,,0.00,Wunderground v.1.15,2013-07-05 16:46:00,
2013-07-05 12:51:00,87.2,77.1,30.19,South,180,1.0,5.0,72,0.00,,,0.00,Wunderground v.1.15,2013-07-05 16:51:00,
2013-07-05 12:56:00,85.5,75.4,30.19,East,89,3.0,5.0,72,0.00,,,0.00,Wunderground v.1.15,2013-07-05 16:56:00,
2013-07-05 13:01:00,86.9,77.6,30.19,SSW,207,3.0,3.0,74,0.00,,,0.00,Wunderground v.1.15,2013-07-05 17:01:00,
2013-07-05 13:02:00,87.0,77.7,30.18,WNW,288,3.0,6.0,74,0.00,,,0.00,Wunderground v.1.15,2013-07-05 17:02:00,
2013-07-05 13:07:00,86.7,75.7,30.18,SSW,204,8.0,11.0,70,0.00,,,0.00,Wunderground v.1.15,2013-07-05 17:07:00,
2013-07-05 13:12:00,86.0,74.2,30.18,SW,217,2.0,6.0,68,0.00,,,0.00,Wunderground v.1.15,2013-07-05 17:12:00,
2013-07-05 13:17:00,84.9,74.9,30.18,West,267,2.0,7.0,72,0.00,,,0.00,Wunderground v.1.15,2013-07-05 17:17:00,
2013-07-05 13:22:00,85.3,76.1,30.18,SSW,192,2.0,8.0,74,0.00,,,0.00,Wunderground v.1.15,2013-07-05 17:22:00,
2013-07-05 13:27:00,85.1,75.5,30.18,WSW,240,2.0,8.0,73,0.00,,,0.00,Wunderground v.1.15,2013-07-05 17:27:00,
2013-07-05 13:32:00,86.3,76.2,30.18,West,268,1.0,7.0,72,0.00,,,0.00,Wunderground v.1.15,2013-07-05 17:32:00,
2013-07-05 13:37:00,87.7,76.7,30.17,SSE,157,1.0,8.0,70,0.00,,,0.00,Wunderground v.1.15,2013-07-05 17:37:00,
2013-07-05 13:42:00,87.5,74.7,30.18,SSW,194,2.0,7.0,66,0.00,,,0.00,Wunderground v.1.15,2013-07-05 17:42:00,
2013-07-05 13:47:00,87.7,77.1,30.17,WSW,249,1.0,11.0,71,0.00,,,0.00,Wunderground v.1.15,2013-07-05 17:47:00,
2013-07-05 13:52:00,87.7,75.4,30.17,SW,225,4.0,11.0,67,0.00,,,0.00,Wunderground v.1.15,2013-07-05 17:52:00,
2013-07-05 13:57:00,88.2,75.9,30.17,South,190,1.0,15.0,67,0.00,,,0.00,Wunderground v.1.15,2013-07-05 17:57:00,
2013-07-05 14:02:00,88.4,74.7,30.17,SW,223,5.0,7.0,64,0.00,,,0.00,Wunderground v.1.15,2013-07-05 18:02:00,
2013-07-05 14:07:00,88.1,75.3,30.17,SW,218,7.0,7.0,66,0.00,,,0.00,Wunderground v.1.15,2013-07-05 18:07:00,
2013-07-05 14:12:00,87.6,73.9,30.17,SE,140,1.0,6.0,64,0.00,,,0.00,Wunderground v.1.15,2013-07-05 18:12:00,
2013-07-05 14:17:00,87.8,74.6,30.17,ESE,119,1.0,6.0,65,0.00,,,0.00,Wunderground v.1.15,2013-07-05 18:17:00,
2013-07-05 14:22:00,88.0,75.2,30.17,SSW,193,1.0,9.0,66,0.00,,,0.00,Wunderground v.1.15,2013-07-05 18:22:00,
2013-07-05 14:27:00,87.9,74.2,30.17,SW,236,3.0,12.0,64,0.00,,,0.00,Wunderground v.1.15,2013-07-05 18:27:00,
2013-07-05 14:32:00,88.2,76.7,30.17,SSW,192,9.0,9.0,69,0.00,,,0.00,Wunderground v.1.15,2013-07-05 18:32:00,
2013-07-05 14:37:00,88.1,75.3,30.16,SSW,192,3.0,9.0,66,0.00,,,0.00,Wunderground v.1.15,2013-07-05 18:37:00,
2013-07-05 14:42:00,88.3,75.0,30.17,East,83,3.0,4.0,65,0.00,,,0.00,Wunderground v.1.15,2013-07-05 18:42:00,
2013-07-05 14:47:00,88.1,74.8,30.16,SSE,168,6.0,9.0,65,0.00,,,0.00,Wunderground v.1.15,2013-07-05 18:47:00,
2013-07-05 14:52:00,87.9,74.7,30.16,SSE,154,3.0,7.0,65,0.00,,,0.00,Wunderground v.1.15,2013-07-05 18:52:00,
2013-07-05 14:57:00,87.9,75.1,30.16,SSW,194,3.0,13.0,66,0.00,,,0.00,Wunderground v.1.15,2013-07-05 18:57:00,
2013-07-05 15:02:00,88.6,74.4,30.16,SSW,202,2.0,6.0,63,0.00,,,0.00,Wunderground v.1.15,2013-07-05 19:02:00,
2013-07-05 15:07:00,88.7,74.5,30.15,SW,216,6.0,10.0,63,0.00,,,0.00,Wunderground v.1.15,2013-07-05 19:07:00,
2013-07-05 15:12:00,88.4,73.7,30.15,SSW,200,4.0,10.0,62,0.00,,,0.00,Wunderground v.1.15,2013-07-05 19:12:00,
2013-07-05 15:17:00,87.9,74.2,30.15,South,173,3.0,10.0,64,0.00,,,0.00,Wunderground v.1.15,2013-07-05 19:17:00,
2013-07-05 15:23:00,87.6,73.9,30.15,SE,125,0.0,7.0,64,0.00,,,0.00,Wunderground v.1.15,2013-07-05 19:23:00,
2013-07-05 15:28:00,87.6,73.4,30.15,SSW,204,2.0,12.0,63,0.00,,,0.00,Wunderground v.1.15,2013-07-05 19:28:00,
2013-07-05 15:33:00,87.9,73.3,30.15,SW,225,1.0,10.0,62,0.00,,,0.00,Wunderground v.1.15,2013-07-05 19:33:00,
2013-07-05 15:38:00,87.3,72.2,30.14,South,186,4.0,12.0,61,0.00,,,0.00,Wunderground v.1.15,2013-07-05 19:38:00,
2013-07-05 15:43:00,87.4,74.2,30.14,SSW,207,7.0,8.0,65,0.00,,,0.00,Wunderground v.1.15,2013-07-05 19:43:00,
2013-07-05 15:48:00,88.5,75.2,30.14,SSW,193,1.0,10.0,65,0.00,,,0.00,Wunderground v.1.15,2013-07-05 19:48:00,
2013-07-05 15:53:00,88.7,75.4,30.14,SW,236,4.0,5.0,65,0.00,,,0.00,Wunderground v.1.15,2013-07-05 19:53:00,
2013-07-05 15:58:00,88.5,74.8,30.13,West,269,3.0,8.0,64,0.00,,,0.00,Wunderground v.1.15,2013-07-05 19:58:00,
2013-07-05 16:03:00,88.3,74.6,30.13,South,187,6.0,7.0,64,0.00,,,0.00,Wunderground v.1.15,2013-07-05 20:03:00,
2013-07-05 16:08:00,87.9,73.7,30.14,SSW,208,2.0,9.0,63,0.00,,,0.00,Wunderground v.1.15,2013-07-05 20:08:00,
2013-07-05 16:13:00,88.2,75.4,30.13,SSW,205,3.0,6.0,66,0.00,,,0.00,Wunderground v.1.15,2013-07-05 20:13:00,
2013-07-05 16:18:00,88.3,74.1,30.13,SW,226,2.0,12.0,63,0.00,,,0.00,Wunderground v.1.15,2013-07-05 20:18:00,
2013-07-05 16:23:00,88.5,74.3,30.13,NW,323,1.0,8.0,63,0.00,,,0.00,Wunderground v.1.15,2013-07-05 20:23:00,
2013-07-05 16:28:00,87.9,74.2,30.13,WSW,239,5.0,8.0,64,0.00,,,0.00,Wunderground v.1.15,2013-07-05 20:28:00,
2013-07-05 16:33:00,88.0,74.8,30.13,SW,232,3.0,8.0,65,0.00,,,0.00,Wunderground v.1.15,2013-07-05 20:33:00,
2013-07-05 16:38:00,87.9,73.7,30.12,SSW,196,4.0,10.0,63,0.00,,,0.00,Wunderground v.1.15,2013-07-05 20:38:00,
2013-07-05 16:43:00,87.5,73.8,30.12,West,266,0.0,7.0,64,0.00,,,0.00,Wunderground v.1.15,2013-07-05 20:43:00,
2013-07-05 16:48:00,87.8,73.6,30.12,SSW,213,1.0,7.0,63,0.00,,,0.00,Wunderground v.1.15,2013-07-05 20:48:00,
2013-07-05 16:53:00,87.7,74.5,30.12,SSW,211,0.0,5.0,65,0.00,,,0.00,Wunderground v.1.15,2013-07-05 20:53:00,
2013-07-05 16:59:00,88.0,74.3,30.12,SW,215,5.0,8.0,64,0.00,,,0.00,Wunderground v.1.15,2013-07-05 20:59:00,
2013-07-05 17:04:00,87.7,74.0,30.12,WNW,298,2.0,6.0,64,0.00,,,0.00,Wunderground v.1.15,2013-07-05 21:04:00,
2013-07-05 17:09:00,87.0,74.3,30.12,South,190,2.0,9.0,66,0.00,,,0.00,Wunderground v.1.15,2013-07-05 21:09:00,
2013-07-05 17:14:00,87.2,74.9,30.11,WSW,249,2.0,5.0,67,0.00,,,0.00,Wunderground v.1.15,2013-07-05 21:14:00,
2013-07-05 17:19:00,87.7,75.4,30.11,SSW,193,0.0,8.0,67,0.00,,,0.00,Wunderground v.1.15,2013-07-05 21:19:00,
2013-07-05 17:24:00,87.5,74.3,30.11,SSW,211,3.0,5.0,65,0.00,,,0.00,Wunderground v.1.15,2013-07-05 21:24:00,
2013-07-05 17:29:00,87.2,75.3,30.11,SE,130,2.0,6.0,68,0.00,,,0.00,Wunderground v.1.15,2013-07-05 21:29:00,
2013-07-05 17:34:00,87.3,75.0,30.11,SSE,168,3.0,4.0,67,0.00,,,0.00,Wunderground v.1.15,2013-07-05 21:34:00,
2013-07-05 17:39:00,87.5,74.7,30.11,West,269,2.0,6.0,66,0.00,,,0.00,Wunderground v.1.15,2013-07-05 21:39:00,
2013-07-05 17:44:00,87.0,74.7,30.10,SW,221,0.0,6.0,67,0.00,,,0.00,Wunderground v.1.15,2013-07-05 21:44:00,
2013-07-05 17:49:00,87.2,75.3,30.10,SSE,153,1.0,6.0,68,0.00,,,0.00,Wunderground v.1.15,2013-07-05 21:49:00,
2013-07-05 17:54:00,87.5,75.6,30.10,SSE,156,1.0,4.0,68,0.00,,,0.00,Wunderground v.1.15,2013-07-05 21:54:00,
2013-07-05 17:59:00,87.2,75.8,30.10,SW,235,2.0,4.0,69,0.00,,,0.00,Wunderground v.1.15,2013-07-05 21:59:00,
2013-07-05 18:04:00,87.0,75.2,30.10,SW,225,0.0,3.0,68,0.00,,,0.00,Wunderground v.1.15,2013-07-05 22:04:00,
2013-07-05 18:09:00,86.8,75.0,30.10,SSE,163,1.0,6.0,68,0.00,,,0.00,Wunderground v.1.15,2013-07-05 22:09:00,
2013-07-05 18:14:00,86.2,74.0,30.10,SW,232,4.0,8.0,67,0.00,,,0.00,Wunderground v.1.15,2013-07-05 22:14:00,
2013-07-05 18:19:00,85.8,73.6,30.10,SSW,213,3.0,3.0,67,0.00,,,0.00,Wunderground v.1.15,2013-07-05 22:19:00,
2013-07-05 18:24:00,85.7,74.4,30.10,South,188,1.0,6.0,69,0.00,,,0.00,Wunderground v.1.15,2013-07-05 22:24:00,
2013-07-05 18:29:00,85.5,73.7,30.10,SSW,202,0.0,2.0,68,0.00,,,0.00,Wunderground v.1.15,2013-07-05 22:29:00,
2013-07-05 18:34:00,85.4,73.6,30.10,SW,229,2.0,4.0,68,0.00,,,0.00,Wunderground v.1.15,2013-07-05 22:34:00,
2013-07-05 18:39:00,85.3,73.5,30.10,SSW,200,1.0,1.0,68,0.00,,,0.00,Wunderground v.1.15,2013-07-05 22:39:00,
2013-07-05 18:44:00,85.0,73.3,30.10,West,266,1.0,7.0,68,0.00,,,0.00,Wunderground v.1.15,2013-07-05 22:44:00,
2013-07-05 18:49:00,84.9,74.0,30.10,WSW,254,2.0,2.0,70,0.00,,,0.00,Wunderground v.1.15,2013-07-05 22:49:00,
2013-07-05 18:54:00,84.7,73.8,30.10,SSW,212,3.0,11.0,70,0.00,,,0.00,Wunderground v.1.15,2013-07-05 22:54:00,
2013-07-05 18:59:00,84.6,73.7,30.10,SSW,211,2.0,4.0,70,0.00,,,0.00,Wunderground v.1.15,2013-07-05 22:59:00,
2013-07-05 19:04:00,84.8,73.9,30.10,South,176,4.0,5.0,70,0.00,,,0.00,Wunderground v.1.15,2013-07-05 23:04:00,
2013-07-05 19:10:00,84.8,73.9,30.10,SW,217,1.0,2.0,70,0.00,,,0.00,Wunderground v.1.15,2013-07-05 23:10:00,
2013-07-05 19:15:00,84.7,73.4,30.10,SW,215,0.0,5.0,69,0.00,,,0.00,Wunderground v.1.15,2013-07-05 23:15:00,
2013-07-05 19:20:00,84.5,73.2,30.10,SSW,206,1.0,2.0,69,0.00,,,0.00,Wunderground v.1.15,2013-07-05 23:20:00,
2013-07-05 19:25:00,84.5,74.1,30.10,WSW,240,1.0,4.0,71,0.00,,,0.00,Wunderground v.1.15,2013-07-05 23:25:00,
2013-07-05 19:30:00,84.3,73.9,30.10,WSW,240,1.0,1.0,71,0.00,,,0.00,Wunderground v.1.15,2013-07-05 23:30:00,
2013-07-05 19:35:00,84.2,73.3,30.10,SW,219,0.0,3.0,70,0.00,,,0.00,Wunderground v.1.15,2013-07-05 23:35:00,
2013-07-05 19:40:00,84.1,73.7,30.11,SSW,211,2.0,6.0,71,0.00,,,0.00,Wunderground v.1.15,2013-07-05 23:40:00,
2013-07-05 19:45:00,83.8,73.8,30.11,SE,127,1.0,6.0,72,0.00,,,0.00,Wunderground v.1.15,2013-07-05 23:45:00,
2013-07-05 19:50:00,83.6,74.0,30.11,SW,217,1.0,2.0,73,0.00,,,0.00,Wunderground v.1.15,2013-07-05 23:50:00,
2013-07-05 19:55:00,83.4,73.8,30.11,SSW,197,0.0,4.0,73,0.00,,,0.00,Wunderground v.1.15,2013-07-05 23:55:00,
2013-07-05 20:00:00,83.2,73.6,30.11,South,177,0.0,1.0,73,0.00,,,0.00,Wunderground v.1.15,2013-07-06 00:00:00,
2013-07-05 20:05:00,83.2,73.6,30.11,SW,214,1.0,6.0,73,0.00,,,0.00,Wunderground v.1.15,2013-07-06 00:05:00,
2013-07-05 20:10:00,83.1,73.5,30.11,SSW,213,1.0,3.0,73,0.00,,,0.00,Wunderground v.1.15,2013-07-06 00:10:00,
2013-07-05 20:15:00,82.8,73.7,30.11,SW,229,2.0,3.0,74,0.00,,,0.00,Wunderground v.1.15,2013-07-06 00:15:00,
2013-07-05 20:20:00,82.6,73.5,30.11,SW,217,1.0,2.0,74,0.00,,,0.00,Wunderground v.1.15,2013-07-06 00:20:00,
2013-07-05 20:25:00,82.3,73.6,30.12,SW,217,0.0,2.0,75,0.00,,,0.00,Wunderground v.1.15,2013-07-06 00:25:00,
2013-07-05 20:30:00,82.0,73.7,30.12,SW,217,0.0,2.0,76,0.00,,,0.00,Wunderground v.1.15,2013-07-06 00:30:00,
2013-07-05 20:35:00,81.9,73.6,30.11,NW,309,0.0,2.0,76,0.00,,,0.00,Wunderground v.1.15,2013-07-06 00:35:00,
2013-07-05 20:40:00,81.8,73.5,30.11,SSW,204,0.0,1.0,76,0.00,,,0.00,Wunderground v.1.15,2013-07-06 00:40:00,
2013-07-05 20:45:00,81.7,73.8,30.12,South,175,1.0,5.0,77,0.00,,,0.00,Wunderground v.1.15,2013-07-06 00:45:00,
2013-07-05 20:50:00,81.5,73.6,30.12,South,175,2.0,2.0,77,0.00,,,0.00,Wunderground v.1.15,2013-07-06 00:50:00,
2013-07-05 20:55:00,81.4,73.5,30.12,SSW,196,2.0,3.0,77,0.00,,,0.00,Wunderground v.1.15,2013-07-06 00:55:00,
2013-07-05 21:00:00,81.4,73.5,30.12,SW,221,0.0,2.0,77,0.00,,,0.00,Wunderground v.1.15,2013-07-06 01:00:00,
2013-07-05 21:05:00,81.4,73.5,30.12,SW,218,0.0,3.0,77,0.00,,,0.00,Wunderground v.1.15,2013-07-06 01:05:00,
2013-07-05 21:10:00,81.4,73.5,30.12,SSW,211,0.0,1.0,77,0.00,,,0.00,Wunderground v.1.15,2013-07-06 01:10:00,
2013-07-05 21:15:00,81.1,73.6,30.12,SSW,211,1.0,2.0,78,0.00,,,0.00,Wunderground v.1.15,2013-07-06 01:15:00,
2013-07-05 21:18:00,81.0,73.5,30.12,SSW,211,0.0,2.0,78,0.00,,,0.00,Wunderground v.1.15,2013-07-06 01:18:00,
2013-07-05 21:23:00,81.0,73.5,30.13,SSW,211,1.0,2.0,78,0.00,,,0.00,Wunderground v.1.15,2013-07-06 01:23:00,
2013-07-05 21:28:00,80.7,73.6,30.13,SSW,211,3.0,3.0,79,0.00,,,0.00,Wunderground v.1.15,2013-07-06 01:28:00,
2013-07-05 21:33:00,80.8,73.3,30.13,SSW,211,0.0,1.0,78,0.00,,,0.00,Wunderground v.1.15,2013-07-06 01:33:00,
2013-07-05 21:38:00,80.6,73.5,30.13,SSW,211,0.0,1.0,79,0.00,,,0.00,Wunderground v.1.15,2013-07-06 01:38:00,
2013-07-05 21:43:00,80.3,73.2,30.13,SSW,211,0.0,1.0,79,0.00,,,0.00,Wunderground v.1.15,2013-07-06 01:43:00,
2013-07-05 21:44:00,80.3,73.2,30.13,SSW,211,1.0,1.0,79,0.00,,,0.00,Wunderground v.1.15,2013-07-06 01:44:00,
2013-07-05 21:49:00,80.3,73.2,30.13,SSW,211,0.0,0.0,79,0.00,,,0.00,Wunderground v.1.15,2013-07-06 01:49:00,
2013-07-05 21:54:00,80.2,73.1,30.13,SSW,211,0.0,0.0,79,0.00,,,0.00,Wunderground v.1.15,2013-07-06 01:54:00,
2013-07-05 21:59:00,80.1,73.0,30.13,SSW,211,0.0,0.0,79,0.00,,,0.00,Wunderground v.1.15,2013-07-06 01:59:00,
2013-07-05 22:04:00,80.1,73.0,30.14,SSW,211,0.0,3.0,79,0.00,,,0.00,Wunderground v.1.15,2013-07-06 02:04:00,
2013-07-05 22:09:00,80.0,72.9,30.14,SSW,211,0.0,0.0,79,0.00,,,0.00,Wunderground v.1.15,2013-07-06 02:09:00,
2013-07-05 22:14:00,79.9,73.2,30.14,SSW,211,0.0,1.0,80,0.00,,,0.00,Wunderground v.1.15,2013-07-06 02:14:00,
2013-07-05 22:19:00,79.9,73.2,30.14,SSW,211,0.0,0.0,80,0.00,,,0.00,Wunderground v.1.15,2013-07-06 02:19:00,
2013-07-05 22:24:00,79.6,72.9,30.14,SSW,211,0.0,1.0,80,0.00,,,0.00,Wunderground v.1.15,2013-07-06 02:24:00,
2013-07-05 22:29:00,79.5,73.2,30.14,SSW,211,0.0,0.0,81,0.00,,,0.00,Wunderground v.1.15,2013-07-06 02:29:00,
2013-07-05 22:34:00,79.3,73.0,30.14,SSW,211,0.0,0.0,81,0.00,,,0.00,Wunderground v.1.15,2013-07-06 02:34:00,
2013-07-05 22:39:00,79.3,73.0,30.14,SSW,211,1.0,2.0,81,0.00,,,0.00,Wunderground v.1.15,2013-07-06 02:39:00,
2013-07-05 22:45:00,79.2,72.9,30.14,SSW,211,0.0,2.0,81,0.00,,,0.00,Wunderground v.1.15,2013-07-06 02:45:00,
2013-07-05 22:49:00,79.2,72.9,30.14,SSW,211,0.0,0.0,81,0.00,,,0.00,Wunderground v.1.15,2013-07-06 02:49:00,
2013-07-05 22:55:00,79.0,73.0,30.14,SSW,211,0.0,0.0,82,0.00,,,0.00,Wunderground v.1.15,2013-07-06 02:55:00,
2013-07-05 23:00:00,78.8,72.8,30.14,West,278,0.0,1.0,82,0.00,,,0.00,Wunderground v.1.15,2013-07-06 03:00:00,
2013-07-05 23:05:00,78.8,72.8,30.14,West,278,0.0,1.0,82,0.00,,,0.00,Wunderground v.1.15,2013-07-06 03:05:00,
2013-07-05 23:10:00,78.8,73.2,30.14,West,278,0.0,0.0,83,0.00,,,0.00,Wunderground v.1.15,2013-07-06 03:10:00,
2013-07-05 23:15:00,78.7,73.1,30.14,West,278,0.0,1.0,83,0.00,,,0.00,Wunderground v.1.15,2013-07-06 03:15:00,
2013-07-05 23:20:00,78.6,73.0,30.14,West,278,0.0,1.0,83,0.00,,,0.00,Wunderground v.1.15,2013-07-06 03:20:00,
2013-07-05 23:25:00,78.5,72.9,30.14,West,278,0.0,1.0,83,0.00,,,0.00,Wunderground v.1.15,2013-07-06 03:25:00,
2013-07-05 23:30:00,78.5,72.9,30.14,West,278,0.0,1.0,83,0.00,,,0.00,Wunderground v.1.15,2013-07-06 03:30:00,
2013-07-05 23:35:00,78.5,72.9,30.14,West,278,0.0,1.0,83,0.00,,,0.00,Wunderground v.1.15,2013-07-06 03:35:00,
2013-07-05 23:40:00,78.5,72.9,30.14,West,278,0.0,1.0,83,0.00,,,0.00,Wunderground v.1.15,2013-07-06 03:40:00,
2013-07-05 23:45:00,78.4,73.2,30.14,West,278,0.0,1.0,84,0.00,,,0.00,Wunderground v.1.15,2013-07-06 03:45:00,
2013-07-05 23:50:00,78.2,73.0,30.14,SW,235,1.0,1.0,84,0.00,,,0.00,Wunderground v.1.15,2013-07-06 03:50:00,
2013-07-05 23:55:00,78.2,73.0,30.14,SW,235,0.0,2.0,84,0.00,,,0.00,Wunderground v.1.15,2013-07-06 03:55:00,
2013-07-05 23:56:00,78.2,73.0,30.14,SW,235,0.0,2.0,84,0.00,,,0.00,Wunderground v.1.15,2013-07-06 03:56:00,